createdAt,value
2022-12-20T00:03:39.983Z,94.97
2022-12-20T00:07:43.711Z,94.98
2022-12-20T00:11:47.530Z,95.18
2022-12-20T00:15:51.528Z,94.72
2022-12-20T00:19:57.198Z,94.46
2022-12-20T00:24:00.973Z,94.91
2022-12-20T00:28:04.786Z,94.66
2022-12-20T00:32:08.815Z,94.84
2022-12-20T00:36:15.439Z,95.09
2022-12-20T00:40:19.368Z,95.05
2022-12-20T00:44:23.079Z,94.93
2022-12-20T00:48:26.969Z,95.31
2022-12-20T00:52:32.156Z,95.18
2022-12-20T00:56:38.656Z,94.68
2022-12-20T01:00:44.040Z,95.30
2022-12-20T01:04:48.079Z,95.08
2022-12-20T01:08:53.673Z,95.00
2022-12-20T01:12:57.555Z,95.67
2022-12-20T01:17:01.557Z,96.03
2022-12-20T01:21:10.043Z,95.69
2022-12-20T01:25:21.770Z,95.59
2022-12-20T01:29:25.728Z,95.36
2022-12-20T01:33:32.078Z,95.84
2022-12-20T01:37:36.222Z,95.52
2022-12-20T01:41:43.530Z,95.85
2022-12-20T01:45:48.427Z,95.86
2022-12-20T01:49:54.970Z,95.60
2022-12-20T01:54:01.341Z,95.47
2022-12-20T01:58:08.917Z,95.53
2022-12-20T02:02:14.720Z,95.67
2022-12-20T02:06:20.615Z,95.37
2022-12-20T02:10:26.709Z,95.38
2022-12-20T02:14:52.051Z,95.66
2022-12-20T02:19:01.705Z,95.44
2022-12-20T02:23:32.917Z,95.67
2022-12-20T02:27:55.352Z,95.53
2022-12-20T02:32:04.807Z,95.77
2022-12-20T02:36:08.895Z,96.06
2022-12-20T02:40:13.139Z,96.01
2022-12-20T02:44:36.649Z,95.65
2022-12-20T02:48:44.571Z,95.51
2022-12-20T02:52:55.043Z,95.87
2022-12-20T02:57:12.640Z,95.82
2022-12-20T03:01:19.880Z,95.58
2022-12-20T03:05:27.649Z,95.98
2022-12-20T03:09:34.056Z,95.98
2022-12-20T03:18:07.434Z,96.33
2022-12-20T03:22:14.124Z,96.28
2022-12-20T03:26:21.356Z,96.07
2022-12-20T03:30:26.264Z,96.47
2022-12-20T03:34:30.765Z,96.28
2022-12-20T03:38:36.689Z,96.15
2022-12-20T03:42:49.467Z,96.20
2022-12-20T03:47:05.295Z,96.80
2022-12-20T03:51:22.325Z,96.71
2022-12-20T03:55:27.260Z,96.59
2022-12-20T03:59:37.619Z,96.67
2022-12-20T04:03:41.618Z,96.63
2022-12-20T04:07:48.832Z,96.09
2022-12-20T04:12:08.030Z,95.74
2022-12-20T04:16:24.021Z,96.17
2022-12-20T04:20:31.089Z,96.27
2022-12-20T04:24:39.505Z,96.14
2022-12-20T04:28:48.885Z,96.61
2022-12-20T04:32:58.692Z,95.94
2022-12-20T04:37:05.521Z,96.43
2022-12-20T04:41:30.277Z,96.06
2022-12-20T04:45:39.331Z,96.34
2022-12-20T04:49:46.837Z,96.51
2022-12-20T04:54:01.099Z,96.53
2022-12-20T04:58:11.732Z,96.76
2022-12-20T05:02:21.286Z,96.47
2022-12-20T05:06:26.327Z,96.57
2022-12-20T05:10:34.941Z,96.77
2022-12-20T05:14:42.180Z,96.74
2022-12-20T05:18:49.663Z,96.77
2022-12-20T05:23:11.902Z,96.55
2022-12-20T05:27:42.053Z,96.58
2022-12-20T05:31:50.450Z,96.79
2022-12-20T05:35:57.418Z,96.60
2022-12-20T05:40:05.751Z,96.67
2022-12-20T05:44:10.335Z,96.65
2022-12-20T05:48:18.020Z,96.96
2022-12-20T05:52:24.179Z,96.92
2022-12-20T05:56:31.263Z,96.80
2022-12-20T06:00:36.934Z,96.50
2022-12-20T06:05:01.423Z,96.69
2022-12-20T06:09:12.536Z,96.67
2022-12-20T06:13:27.158Z,96.52
2022-12-20T06:17:34.177Z,96.51
2022-12-20T06:22:06.151Z,96.69
2022-12-20T06:26:11.474Z,96.57
2022-12-20T06:30:20.781Z,96.86
2022-12-20T06:34:33.688Z,96.94
2022-12-20T06:38:41.450Z,96.95
2022-12-20T06:42:53.677Z,96.33
2022-12-20T06:46:57.633Z,96.62
2022-12-20T06:51:06.505Z,96.83
2022-12-20T06:55:11.446Z,96.94
2022-12-20T06:59:17.309Z,96.81
2022-12-20T07:03:22.468Z,96.98
2022-12-20T07:07:26.480Z,96.96
2022-12-20T07:11:33.836Z,96.44
2022-12-20T07:15:40.789Z,96.64
2022-12-20T07:19:51.959Z,96.40
2022-12-20T07:24:22.640Z,96.53
2022-12-20T07:28:29.659Z,96.58
2022-12-20T07:32:53.941Z,96.48
2022-12-20T07:37:07.741Z,96.75
2022-12-20T07:41:17.720Z,96.51
2022-12-20T07:45:25.451Z,96.74
2022-12-20T07:49:36.453Z,96.59
2022-12-20T07:53:46.985Z,96.80
2022-12-20T07:58:02.383Z,96.59
2022-12-20T08:02:12.571Z,96.84
2022-12-20T08:06:26.670Z,96.78
2022-12-20T08:10:32.436Z,96.66
2022-12-20T08:14:46.312Z,96.64
2022-12-20T08:19:06.382Z,96.73
2022-12-20T08:23:13.589Z,96.86
2022-12-20T08:27:25.223Z,96.25
2022-12-20T08:31:30.983Z,96.31
2022-12-20T08:35:47.647Z,96.41
2022-12-20T08:40:06.163Z,96.22
2022-12-20T08:44:12.118Z,96.31
2022-12-20T08:48:17.109Z,96.53
2022-12-20T08:52:28.322Z,96.03
2022-12-20T08:56:41.858Z,96.01
2022-12-20T09:00:55.850Z,96.02
2022-12-20T09:05:07.262Z,96.21
2022-12-20T09:09:12.308Z,95.65
2022-12-20T09:13:23.566Z,96.10
2022-12-20T09:17:32.704Z,95.45
2022-12-20T09:21:39.832Z,95.83
2022-12-20T09:25:46.528Z,95.59
2022-12-20T09:29:57.599Z,95.98
2022-12-20T09:34:03.838Z,95.32
2022-12-20T09:38:15.906Z,95.52
2022-12-20T09:42:28.657Z,95.06
2022-12-20T09:46:44.639Z,95.30
2022-12-20T09:50:57.028Z,95.10
2022-12-20T09:55:11.131Z,95.42
2022-12-20T09:59:24.997Z,95.13
2022-12-20T10:03:36.675Z,95.36
2022-12-20T10:07:56.120Z,94.65
2022-12-20T10:12:07.920Z,94.27
2022-12-20T10:16:26.803Z,94.17
2022-12-20T10:20:56.376Z,94.51
2022-12-20T10:25:17.744Z,94.20
2022-12-20T10:29:25.305Z,93.58
2022-12-20T10:33:29.992Z,93.68
2022-12-20T10:37:35.024Z,93.16
2022-12-20T10:41:52.175Z,93.31
2022-12-20T10:46:01.524Z,92.95
2022-12-20T10:50:29.107Z,92.57
2022-12-20T10:54:41.462Z,92.89
2022-12-20T10:58:58.891Z,92.59
2022-12-20T11:03:16.264Z,92.55
2022-12-20T11:07:27.228Z,92.17
2022-12-20T11:11:38.706Z,92.33
2022-12-20T11:15:50.652Z,91.77
2022-12-20T11:20:03.471Z,92.31
2022-12-20T11:24:13.568Z,91.88
2022-12-20T11:28:27.576Z,91.75
2022-12-20T11:32:49.060Z,91.26
2022-12-20T11:37:05.135Z,91.80
2022-12-20T11:41:23.157Z,91.04
2022-12-20T11:45:29.574Z,90.40
2022-12-20T11:50:11.645Z,90.20
2022-12-20T11:54:23.575Z,90.35
2022-12-20T11:58:29.644Z,89.19
2022-12-20T12:02:40.133Z,89.12
2022-12-20T12:06:47.037Z,89.50
2022-12-20T12:11:06.284Z,88.23
2022-12-20T12:15:22.349Z,88.88
2022-12-20T12:19:33.093Z,89.38
2022-12-20T12:23:43.487Z,88.70
2022-12-20T12:27:47.370Z,87.51
2022-12-20T12:31:51.649Z,87.28
2022-12-20T12:36:13.466Z,87.66
2022-12-20T12:40:52.006Z,88.29
2022-12-20T12:44:58.217Z,86.56
2022-12-20T12:49:04.387Z,87.44
2022-12-20T12:53:11.338Z,87.28
2022-12-20T12:57:16.344Z,87.82
2022-12-20T13:01:53.896Z,87.89
2022-12-20T13:05:57.538Z,87.62
2022-12-20T13:10:03.549Z,87.64
2022-12-20T13:14:50.139Z,89.38
2022-12-20T13:19:22.016Z,89.35
2022-12-20T13:23:25.106Z,88.91
2022-12-20T13:27:37.477Z,89.81
2022-12-20T13:31:44.759Z,89.44
2022-12-20T13:36:03.745Z,88.64
2022-12-20T13:40:20.340Z,88.46
2022-12-20T13:44:37.382Z,89.37
2022-12-20T13:48:49.271Z,89.03
2022-12-20T13:52:55.936Z,90.02
2022-12-20T13:57:07.343Z,90.40
2022-12-20T14:01:15.139Z,90.17
2022-12-20T14:05:22.305Z,90.32
2022-12-20T14:09:37.420Z,90.46
2022-12-20T14:13:43.861Z,91.65
2022-12-20T14:17:49.672Z,92.03
2022-12-20T14:21:55.073Z,91.88
2022-12-20T14:26:06.601Z,91.67
2022-12-20T14:30:37.836Z,92.10
2022-12-20T14:34:45.176Z,92.96
2022-12-20T14:38:50.240Z,92.07
2022-12-20T14:42:55.418Z,92.89
2022-12-20T14:47:02.969Z,92.64
2022-12-20T14:51:15.285Z,92.66
2022-12-20T14:55:28.729Z,92.91
2022-12-20T14:59:33.982Z,93.29
2022-12-20T15:03:39.898Z,93.44
2022-12-20T15:07:48.669Z,93.22
2022-12-20T15:11:53.327Z,93.44
2022-12-20T15:16:15.604Z,93.57
2022-12-20T15:20:40.816Z,93.62
2022-12-20T15:24:46.833Z,93.44
2022-12-20T15:28:51.588Z,93.50
2022-12-20T15:33:01.640Z,94.08
2022-12-20T15:37:06.778Z,94.05
2022-12-20T15:41:16.452Z,93.99
2022-12-20T15:45:32.663Z,94.54
2022-12-20T15:49:35.928Z,94.38
2022-12-20T15:53:39.381Z,95.11
2022-12-20T15:57:47.473Z,94.62
2022-12-20T16:01:51.117Z,94.91
2022-12-20T16:05:56.833Z,95.69
2022-12-20T16:10:01.476Z,95.40
2022-12-20T16:14:16.293Z,94.56
2022-12-20T16:18:24.164Z,95.43
2022-12-20T16:22:28.777Z,94.95
2022-12-20T16:26:34.569Z,95.47
2022-12-20T16:30:47.910Z,95.51
2022-12-20T16:35:11.785Z,96.08
2022-12-20T16:39:30.283Z,96.52
2022-12-20T16:43:44.269Z,96.24
2022-12-20T16:48:10.390Z,95.92
2022-12-20T16:52:24.147Z,96.20
2022-12-20T16:56:50.023Z,95.83
2022-12-20T17:00:57.542Z,95.56
2022-12-20T17:05:13.248Z,96.12
2022-12-20T17:14:08.784Z,96.51
2022-12-20T17:18:22.114Z,96.31
2022-12-20T17:22:29.017Z,96.09
2022-12-20T17:26:39.868Z,95.83
2022-12-20T17:31:01.024Z,96.43
2022-12-20T17:35:09.118Z,96.48
2022-12-20T17:39:13.647Z,96.26
2022-12-20T17:43:16.563Z,96.36
2022-12-20T17:47:19.301Z,96.50
2022-12-20T17:51:26.791Z,96.22
2022-12-20T17:55:32.292Z,95.97
2022-12-20T17:59:37.250Z,96.11
2022-12-20T18:04:03.021Z,96.60
2022-12-20T18:08:07.336Z,96.46
2022-12-20T18:12:12.044Z,96.30
2022-12-20T18:16:16.483Z,96.40
2022-12-20T18:20:20.624Z,96.51
2022-12-20T18:24:24.117Z,95.68
2022-12-20T18:28:40.572Z,95.87
2022-12-20T18:32:53.235Z,96.09
2022-12-20T18:36:57.183Z,96.01
2022-12-20T18:41:02.241Z,96.15
2022-12-20T18:45:19.221Z,96.82
2022-12-20T18:49:23.026Z,96.47
2022-12-20T18:53:30.665Z,96.38
2022-12-20T18:57:51.050Z,96.48
2022-12-20T19:01:56.884Z,96.33
2022-12-20T19:06:05.133Z,96.74
2022-12-20T19:10:16.831Z,96.78
2022-12-20T19:14:21.146Z,97.04
2022-12-20T19:18:27.148Z,96.88
2022-12-20T19:22:34.890Z,96.37
2022-12-20T19:26:52.644Z,96.99
2022-12-20T19:30:57.603Z,97.42
2022-12-20T19:35:37.469Z,97.22
2022-12-20T19:39:42.769Z,96.94
2022-12-20T19:43:53.652Z,96.90
2022-12-20T19:47:57.838Z,96.70
2022-12-20T19:52:09.455Z,97.46
2022-12-20T19:56:28.113Z,96.91
2022-12-20T20:01:06.731Z,96.91
2022-12-20T20:05:18.189Z,97.03
2022-12-20T20:09:25.874Z,96.96
2022-12-20T20:13:36.538Z,97.21
2022-12-20T20:17:45.430Z,97.28
2022-12-20T20:22:31.164Z,97.23
2022-12-20T20:26:37.127Z,97.45
2022-12-20T20:30:50.338Z,97.31
2022-12-20T20:35:00.478Z,97.66
2022-12-20T20:39:37.093Z,97.45
2022-12-20T20:43:50.182Z,97.91
2022-12-20T20:48:12.801Z,97.97
2022-12-20T20:52:28.315Z,97.41
2022-12-20T20:56:41.882Z,97.93
2022-12-20T21:00:52.541Z,98.30
2022-12-20T21:06:06.302Z,97.50
2022-12-20T21:09:41.704Z,97.92
2022-12-20T21:13:52.845Z,97.87
2022-12-20T21:18:02.797Z,97.08
2022-12-20T21:22:08.056Z,98.10
2022-12-20T21:26:20.139Z,97.66
2022-12-20T21:30:24.634Z,97.23
2022-12-20T21:34:41.755Z,98.20
2022-12-20T21:38:58.505Z,97.60
2022-12-20T21:43:21.268Z,97.86
2022-12-20T21:47:27.069Z,97.55
2022-12-20T21:51:50.632Z,97.59
2022-12-20T21:56:01.185Z,97.12
2022-12-20T22:00:28.419Z,96.99
2022-12-20T22:09:09.544Z,97.17
2022-12-20T22:13:20.058Z,97.73
2022-12-20T22:17:28.821Z,97.84
2022-12-20T22:21:34.737Z,97.46
2022-12-20T22:25:55.769Z,97.53
2022-12-20T22:29:59.797Z,97.45
2022-12-20T22:34:07.078Z,97.41
2022-12-20T22:38:19.763Z,97.45
2022-12-20T22:42:31.886Z,97.16
2022-12-20T22:46:51.588Z,97.51
2022-12-20T22:51:04.942Z,97.01
2022-12-20T22:55:33.429Z,97.89
2022-12-20T22:59:45.894Z,96.83
2022-12-20T23:03:51.048Z,97.84
2022-12-20T23:08:13.774Z,97.59
2022-12-20T23:12:42.508Z,97.31
2022-12-20T23:16:51.974Z,97.09
2022-12-20T23:21:19.552Z,97.09
2022-12-20T23:25:24.126Z,97.18
2022-12-20T23:29:27.090Z,97.52
2022-12-20T23:33:49.020Z,97.45
2022-12-20T23:37:56.659Z,97.73
2022-12-20T23:42:05.305Z,97.70
2022-12-20T23:46:13.514Z,97.30
2022-12-20T23:50:18.170Z,97.54
2022-12-20T23:54:21.664Z,97.73
2022-12-20T23:58:25.176Z,97.52
